Rondo — UBMF — position and weather

sailwx.info

Track history (hours):
 
Tides and Currents Weather Stations Pressure Air Temp Water Temp Dewpoint Dewpoint Depression Visibility Wind Speed Wind Dir Waves Ship Positions

Rondo

Last reported at 2017-Dec-08 11:52 UTC. Time now 2017-Dec-14 00:17 UTC.
Position N 45°19' E 036°30'.

Length 108 m; draft 3.5 m.

Type: Cargo ship. MMSI: 273447120.

Date/timePositionNaut miles runAvg speedWind from/ knotsBaromVisibWave heightAir tempDewpointWater temp
2017-Dec-08 11:52N 45°19' E 036°30'2 6.5
2017-Dec-08 11:30N 45°19' E 036°33'3 6.7
2017-Dec-08 11:00N 45°21' E 036°38'3 6.5
2017-Dec-08 10:30N 45°23' E 036°40'  
2017-Dec-02 12:15N 45°27' E 036°42'2 7.4
2017-Dec-02 12:00N 45°25' E 036°41'4 7.3
2017-Dec-02 11:30N 45°21' E 036°39'4 7.4
2017-Dec-02 11:00N 45°20' E 036°35'  
2017-Nov-29 10:23N 45°16' E 036°28'3 5.7
2017-Nov-29 09:54N 45°18' E 036°29'3 6.6
2017-Nov-29 09:30N 45°19' E 036°33'3 6.8
2017-Nov-29 09:00N 45°21' E 036°37'3 6.0
2017-Nov-29 08:30N 45°23' E 036°40'3 6.2
2017-Nov-29 08:00N 45°26' E 036°40'3 5.7
2017-Nov-29 07:30N 45°28' E 036°39'  
Track history (hours):
 
Tides and Currents Weather Stations Pressure Air Temp Water Temp Dewpoint Dewpoint Depression Visibility Wind Speed Wind Dir Waves Ship Positions

Rondo

Last reported at 2017-Dec-08 11:52 UTC. Time now 2017-Dec-14 00:17 UTC.
Position N 45°19' E 036°30'.

Length 108 m; draft 3.5 m.

Type: Cargo ship. MMSI: 273447120.

Date/timePositionNaut miles runAvg speedWind from/ knotsBaromVisibWave heightAir tempDewpointWater temp
2017-Dec-08 11:52N 45°19' E 036°30'2 6.5
2017-Dec-08 11:30N 45°19' E 036°33'3 6.7
2017-Dec-08 11:00N 45°21' E 036°38'3 6.5
2017-Dec-08 10:30N 45°23' E 036°40'  
2017-Dec-02 12:15N 45°27' E 036°42'2 7.4
2017-Dec-02 12:00N 45°25' E 036°41'4 7.3
2017-Dec-02 11:30N 45°21' E 036°39'4 7.4
2017-Dec-02 11:00N 45°20' E 036°35'  
2017-Nov-29 10:23N 45°16' E 036°28'3 5.7
2017-Nov-29 09:54N 45°18' E 036°29'3 6.6
2017-Nov-29 09:30N 45°19' E 036°33'3 6.8
2017-Nov-29 09:00N 45°21' E 036°37'3 6.0
2017-Nov-29 08:30N 45°23' E 036°40'3 6.2
2017-Nov-29 08:00N 45°26' E 036°40'3 5.7
2017-Nov-29 07:30N 45°28' E 036°39'  

Dump ship's entire track history